Time;durP1;ratioP1;P1;durP2;ratioP2;P2;SDS_P1;SDS_P2;PMS_P1;PMS_P2;Temp;Humidity;BMP_temperature;BMP_pressure;BME280_temperature;BME280_humidity;BME280_pressure;Samples;Min_cycle;Max_cycle;Signal;HPM_P1;HPM_P2
2021/04/29 00:01:17;;;;;;;33.83;29.33;;;18.30;76.20;;;;;;5040161;28;20024;-71
2021/04/29 00:03:45;;;;;;;28.58;24.85;;;18.30;76.20;;;;;;5039220;28;20033;-71
2021/04/29 00:06:13;;;;;;;27.23;24.48;;;18.40;74.30;;;;;;5041918;28;20017;-66
2021/04/29 00:08:40;;;;;;;25.60;22.90;;;18.50;74.30;;;;;;5042023;28;20084;-69
2021/04/29 00:11:09;;;;;;;24.60;22.08;;;18.70;74.50;;;;;;5041759;28;20460;-70
2021/04/29 00:13:36;;;;;;;29.27;26.40;;;18.70;74.20;;;;;;5042100;28;20025;-72
2021/04/29 00:16:04;;;;;;;29.50;26.33;;;18.90;73.80;;;;;;5041719;28;20484;-71
2021/04/29 00:18:31;;;;;;;30.33;25.13;;;19.10;74.00;;;;;;5041991;28;20134;-70
2021/04/29 00:20:59;;;;;;;26.17;23.48;;;19.30;73.00;;;;;;5042376;28;20021;-71
2021/04/29 00:23:30;;;;;;;27.65;24.70;;;19.50;71.80;;;;;;5040461;28;20033;-71
2021/04/29 00:25:58;;;;;;;27.90;24.98;;;19.70;71.20;;;;;;5038930;28;20021;-66
2021/04/29 00:28:25;;;;;;;27.30;24.60;;;19.70;70.70;;;;;;5040834;28;20009;-72
2021/04/29 00:30:53;;;;;;;29.92;26.77;;;19.80;71.70;;;;;;5040549;28;20043;-73
2021/04/29 00:33:20;;;;;;;28.33;25.02;;;19.90;70.60;;;;;;5041835;28;20658;-67
2021/04/29 00:35:47;;;;;;;28.27;25.40;;;20.10;69.70;;;;;;5042358;28;20549;-66
2021/04/29 00:38:16;;;;;;;28.35;25.35;;;20.30;69.50;;;;;;5041466;28;20029;-66
2021/04/29 00:40:44;;;;;;;26.15;23.52;;;20.40;68.70;;;;;;5041762;28;20035;-71
2021/04/29 00:43:13;;;;;;;27.65;24.48;;;20.50;67.80;;;;;;5042868;28;20432;-71
2021/04/29 00:45:41;;;;;;;42.55;25.15;;;20.60;68.20;;;;;;5040446;28;20365;-74
2021/04/29 00:48:08;;;;;;;26.63;23.98;;;20.70;68.40;;;;;;5040795;28;20067;-72
2021/04/29 00:50:36;;;;;;;26.23;23.83;;;20.90;67.80;;;;;;5040703;28;20017;-73
2021/04/29 00:53:03;;;;;;;21.77;19.52;;;21.00;65.70;;;;;;5041653;28;20029;-72
2021/04/29 00:55:31;;;;;;;21.63;19.48;;;21.10;66.30;;;;;;5038611;28;20463;-64
2021/04/29 00:57:58;;;;;;;16.83;15.23;;;21.40;66.10;;;;;;5040252;28;20112;-66
2021/04/29 01:00:27;;;;;;;14.98;11.73;;;21.60;65.90;;;;;;5040143;28;20029;-65
2021/04/29 01:03:07;;;;;;;14.98;12.18;;;21.70;64.50;;;;;;5036741;28;20223;-65
2021/04/29 01:05:45;;;;;;;12.20;10.35;;;21.90;62.60;;;;;;5040202;28;20108;-72
2021/04/29 01:08:20;;;;;;;20.75;14.98;;;22.00;63.10;;;;;;5038621;28;20021;-71
2021/04/29 01:11:01;;;;;;;12.48;10.23;;;22.10;62.60;;;;;;5036466;28;20029;-71
2021/04/29 01:13:32;;;;;;;13.50;8.60;;;22.20;61.00;;;;;;5037603;28;20116;-68
2021/04/29 01:16:01;;;;;;;13.10;9.05;;;22.30;61.00;;;;;;5040865;28;20120;-72
2021/04/29 01:18:29;;;;;;;12.70;9.18;;;22.50;60.90;;;;;;5040655;28;20057;-65
2021/04/29 01:21:15;;;;;;;12.70;9.73;;;22.60;59.70;;;;;;5037371;28;20036;-65
2021/04/29 01:23:48;;;;;;;14.38;9.75;;;22.60;60.10;;;;;;5036256;28;20037;-71
2021/04/29 01:26:22;;;;;;;27.70;11.02;;;22.90;60.80;;;;;;5040289;28;20017;-67
2021/04/29 01:28:51;;;;;;;31.52;10.75;;;23.00;59.10;;;;;;5045633;28;20020;-66
2021/04/29 01:31:22;;;;;;;14.48;9.50;;;23.00;58.40;;;;;;5046024;28;20114;-72
2021/04/29 01:33:51;;;;;;;10.07;8.13;;;23.10;58.70;;;;;;5042847;28;20032;-66
2021/04/29 01:36:19;;;;;;;12.07;10.02;;;23.30;58.30;;;;;;5042902;28;20033;-71
2021/04/29 01:38:47;;;;;;;8.75;7.63;;;23.30;58.20;;;;;;5045333;28;20028;-72
2021/04/29 01:41:15;;;;;;;11.27;7.07;;;23.40;56.80;;;;;;5045103;28;20068;-72
2021/04/29 01:43:43;;;;;;;9.27;7.40;;;23.50;56.20;;;;;;5044304;28;20531;-66
2021/04/29 01:46:12;;;;;;;9.50;8.45;;;23.60;57.10;;;;;;5041983;28;20569;-70
2021/04/29 01:48:39;;;;;;;8.68;7.55;;;23.60;56.60;;;;;;5041330;28;20071;-67
2021/04/29 01:51:07;;;;;;;6.72;6.15;;;23.70;56.90;;;;;;5042827;28;20021;-66
2021/04/29 01:53:35;;;;;;;12.60;9.48;;;23.70;56.10;;;;;;5041913;28;20045;-66
2021/04/29 01:56:05;;;;;;;8.15;6.30;;;23.80;55.30;;;;;;5023471;28;20032;-67
2021/04/29 01:58:32;;;;;;;7.95;7.15;;;23.90;56.00;;;;;;5044207;28;20021;-66
2021/04/29 02:43:17;;;;;;;12.15;8.35;;;24.50;52.30;;;;;;5123595;27;20394;-66
2021/04/29 02:45:45;;;;;;;9.60;7.05;;;24.90;51.00;;;;;;5124385;27;20161;-65
2021/04/29 02:48:15;;;;;;;7.82;7.13;;;24.90;49.70;;;;;;5124259;27;20103;-70
2021/04/29 02:50:46;;;;;;;6.95;6.30;;;25.00;48.90;;;;;;5115365;28;20065;-71
2021/04/29 02:53:14;;;;;;;12.75;7.88;;;25.20;48.70;;;;;;5124143;27;20015;-69
2021/04/29 02:55:46;;;;;;;10.48;9.23;;;25.30;48.30;;;;;;5124100;27;20016;-66
2021/04/29 02:58:16;;;;;;;11.38;7.78;;;25.40;50.10;;;;;;5119346;28;20524;-69
2021/04/29 03:00:46;;;;;;;9.98;7.20;;;25.30;50.20;;;;;;5122889;27;20035;-70
2021/04/29 03:03:14;;;;;;;10.73;7.60;;;25.40;49.20;;;;;;5123935;27;20050;-67
2021/04/29 03:05:41;;;;;;;9.93;7.07;;;25.60;48.70;;;;;;5114882;27;20059;-68
2021/04/29 03:08:09;;;;;;;6.65;5.68;;;25.70;48.40;;;;;;5123559;27;20024;-70
2021/04/29 03:10:37;;;;;;;7.63;5.93;;;25.70;49.90;;;;;;5121599;28;20096;-69
2021/04/29 03:13:05;;;;;;;15.98;12.52;;;25.80;51.10;;;;;;5122445;27;20026;-68
2021/04/29 03:15:32;;;;;;;27.23;8.95;;;25.80;50.20;;;;;;5122175;28;20349;-70
2021/04/29 03:18:00;;;;;;;15.23;8.25;;;25.90;48.30;;;;;;5119585;27;20120;-70
2021/04/29 03:20:27;;;;;;;20.70;12.82;;;25.90;47.50;;;;;;5122575;27;20038;-70
2021/04/29 03:22:54;;;;;;;10.88;6.80;;;25.90;47.10;;;;;;5122921;27;20027;-67
2021/04/29 03:25:22;;;;;;;15.40;6.88;;;25.80;47.40;;;;;;5123111;27;20383;-65
2021/04/29 03:27:49;;;;;;;21.52;11.00;;;25.90;46.40;;;;;;5123564;27;20466;-67
2021/04/29 03:30:17;;;;;;;18.25;11.30;;;25.90;47.30;;;;;;5121817;28;20049;-68
2021/04/29 03:32:44;;;;;;;31.70;13.98;;;25.90;47.30;;;;;;5123668;27;20027;-68
2021/04/29 03:35:11;;;;;;;38.88;15.23;;;25.80;47.00;;;;;;5118268;28;20040;-68
2021/04/29 03:37:39;;;;;;;53.15;17.48;;;25.80;47.80;;;;;;5121714;28;20023;-70
2021/04/29 03:40:07;;;;;;;29.13;20.17;;;25.90;47.60;;;;;;5122285;27;20022;-70
2021/04/29 03:42:34;;;;;;;30.20;21.90;;;25.90;46.50;;;;;;5112820;28;20439;-67
2021/04/29 03:45:01;;;;;;;30.13;23.75;;;25.90;46.50;;;;;;5109097;28;20055;-67
2021/04/29 03:47:28;;;;;;;24.05;21.10;;;25.90;47.30;;;;;;5109934;28;20024;-70
2021/04/29 03:49:56;;;;;;;22.38;20.17;;;26.00;47.50;;;;;;5109657;28;20077;-67
2021/04/29 03:52:23;;;;;;;24.02;21.50;;;26.10;46.90;;;;;;5107933;28;20127;-68
2021/04/29 03:54:50;;;;;;;24.45;22.00;;;26.10;46.70;;;;;;5109114;28;20024;-68
2021/04/29 03:57:18;;;;;;;25.30;22.90;;;26.20;46.40;;;;;;5108727;28;20072;-68
2021/04/29 03:59:45;;;;;;;22.20;20.00;;;26.30;45.40;;;;;;5107450;28;20024;-66
2021/04/29 04:02:12;;;;;;;23.95;21.50;;;26.30;45.90;;;;;;5109255;28;20107;-66
2021/04/29 04:04:39;;;;;;;22.75;20.63;;;26.30;45.90;;;;;;5109447;28;20114;-66
2021/04/29 04:07:07;;;;;;;23.88;21.38;;;26.20;45.90;;;;;;5109941;28;20021;-66
2021/04/29 04:09:34;;;;;;;25.40;22.90;;;26.10;45.50;;;;;;5107383;28;20043;-70
2021/04/29 04:12:01;;;;;;;22.75;20.55;;;26.30;44.20;;;;;;5109049;28;20051;-70
2021/04/29 04:14:29;;;;;;;22.45;20.35;;;26.30;45.00;;;;;;5109326;28;20121;-65
2021/04/29 04:16:56;;;;;;;20.73;18.88;;;26.30;44.70;;;;;;5109469;28;20015;-66
2021/04/29 04:19:27;;;;;;;21.75;19.65;;;26.10;44.40;;;;;;5109453;28;20007;-71
2021/04/29 04:21:57;;;;;;;20.20;17.98;;;25.90;44.70;;;;;;5109293;27;20081;-71
2021/04/29 04:24:27;;;;;;;24.42;21.67;;;25.80;45.90;;;;;;5108330;28;20391;-67
2021/04/29 04:26:54;;;;;;;26.00;23.33;;;25.90;46.80;;;;;;5094833;28;20035;-71
2021/04/29 04:29:21;;;;;;;27.92;25.13;;;26.00;47.30;;;;;;5097902;28;20024;-67
2021/04/29 04:31:49;;;;;;;25.48;22.98;;;26.10;46.00;;;;;;5107580;28;20092;-70
2021/04/29 04:34:16;;;;;;;24.63;22.20;;;26.10;46.90;;;;;;5108407;28;20016;-68
2021/04/29 04:36:44;;;;;;;23.98;21.48;;;26.10;46.60;;;;;;5108490;27;20016;-71
2021/04/29 04:39:11;;;;;;;24.42;22.00;;;26.10;47.40;;;;;;5108614;28;20468;-68
2021/04/29 04:41:38;;;;;;;26.35;23.75;;;26.20;46.90;;;;;;5108339;28;20048;-67
2021/04/29 04:44:06;;;;;;;26.60;23.67;;;26.20;47.00;;;;;;5107318;28;20027;-67
2021/04/29 04:46:33;;;;;;;23.95;21.65;;;26.20;47.60;;;;;;5101787;28;20039;-67
2021/04/29 04:49:00;;;;;;;24.33;21.88;;;26.30;47.00;;;;;;5108650;28;20024;-72
2021/04/29 04:51:30;;;;;;;24.90;22.35;;;26.40;46.10;;;;;;5099576;28;20047;-72
2021/04/29 04:54:00;;;;;;;26.50;23.85;;;26.50;46.60;;;;;;5108322;28;20016;-66
2021/04/29 04:56:28;;;;;;;28.08;25.27;;;26.40;46.70;;;;;;5108068;28;20004;-72
2021/04/29 04:58:55;;;;;;;30.85;27.95;;;26.30;46.10;;;;;;5108404;28;20110;-66
2021/04/29 05:01:25;;;;;;;29.90;26.85;;;26.40;45.70;;;;;;5107834;28;20539;-73
2021/04/29 05:03:54;;;;;;;30.33;27.38;;;26.40;46.90;;;;;;5100954;28;20023;-73
2021/04/29 05:06:21;;;;;;;31.77;28.45;;;26.50;46.90;;;;;;5096417;28;20039;-72
2021/04/29 05:08:49;;;;;;;30.27;27.35;;;26.60;46.70;;;;;;5099438;28;20055;-67
2021/04/29 05:11:16;;;;;;;30.75;27.65;;;26.60;47.20;;;;;;5098923;28;20028;-65
2021/04/29 05:13:43;;;;;;;28.42;25.58;;;26.70;47.10;;;;;;5100728;28;20110;-68
2021/04/29 05:16:11;;;;;;;19.58;17.88;;;26.80;47.20;;;;;;5095562;28;20463;-70
2021/04/29 05:18:38;;;;;;;21.13;18.98;;;26.70;45.40;;;;;;5097089;28;20418;-64
2021/04/29 05:21:05;;;;;;;17.17;15.57;;;26.70;47.10;;;;;;5100535;28;20260;-64
2021/04/29 05:23:35;;;;;;;19.10;17.27;;;26.60;47.10;;;;;;5098288;28;20084;-64
2021/04/29 05:26:03;;;;;;;17.83;16.00;;;26.60;46.60;;;;;;5096548;28;20831;-69
2021/04/29 05:28:30;;;;;;;10.48;9.45;;;26.40;46.90;;;;;;5099481;28;20039;-67
2021/04/29 05:30:58;;;;;;;9.68;8.88;;;26.30;47.90;;;;;;5099716;28;20024;-71
2021/04/29 05:33:25;;;;;;;9.43;8.35;;;26.20;47.80;;;;;;5097600;28;20030;-71
2021/04/29 05:35:52;;;;;;;7.97;7.10;;;26.30;47.90;;;;;;5101772;28;20084;-68
2021/04/29 05:38:20;;;;;;;8.98;8.07;;;26.40;47.40;;;;;;5095345;28;20019;-70
2021/04/29 05:40:47;;;;;;;10.10;8.10;;;26.70;47.10;;;;;;5098627;28;20380;-68
2021/04/29 05:43:14;;;;;;;8.45;7.65;;;26.80;46.60;;;;;;5100890;28;20104;-68
2021/04/29 05:45:41;;;;;;;8.57;7.68;;;26.80;46.10;;;;;;5097467;28;20537;-69
2021/04/29 05:48:09;;;;;;;10.52;8.02;;;26.70;46.60;;;;;;5099240;28;20533;-72
2021/04/29 05:50:39;;;;;;;8.18;7.18;;;26.90;46.00;;;;;;5100107;28;20453;-70
2021/04/29 05:53:06;;;;;;;11.55;7.97;;;27.00;46.10;;;;;;5097928;28;20728;-69
2021/04/29 05:55:34;;;;;;;8.82;7.65;;;26.90;45.80;;;;;;5098558;28;20052;-70
2021/04/29 05:58:01;;;;;;;11.98;8.35;;;26.90;44.60;;;;;;5101690;28;20082;-72
2021/04/29 06:00:29;;;;;;;9.43;8.30;;;26.80;45.80;;;;;;5098704;28;20276;-70
2021/04/29 06:02:56;;;;;;;9.90;9.10;;;26.80;45.20;;;;;;5096311;28;20061;-69
2021/04/29 06:05:24;;;;;;;19.45;17.65;;;26.70;45.90;;;;;;5100509;28;20023;-71
2021/04/29 06:07:58;;;;;;;12.30;11.10;;;26.70;45.60;;;;;;5103853;28;20361;-70
2021/04/29 06:10:27;;;;;;;11.38;10.05;;;26.60;45.50;;;;;;5098565;28;20012;-74
2021/04/29 06:12:54;;;;;;;7.28;6.57;;;26.40;44.90;;;;;;5098804;28;20020;-69
2021/04/29 06:15:25;;;;;;;6.85;6.15;;;26.40;44.50;;;;;;5096532;28;20108;-71
2021/04/29 06:17:52;;;;;;;7.10;6.40;;;26.30;44.80;;;;;;5097362;28;20019;-69
2021/04/29 06:20:20;;;;;;;7.30;6.57;;;26.00;45.50;;;;;;5099851;28;20487;-73
2021/04/29 06:22:48;;;;;;;7.00;6.35;;;25.80;45.40;;;;;;5100265;28;20441;-72
2021/04/29 06:25:15;;;;;;;6.90;6.30;;;25.70;45.90;;;;;;5100206;28;20391;-69
2021/04/29 06:27:46;;;;;;;7.03;6.32;;;25.50;46.20;;;;;;5098791;28;20026;-69
2021/04/29 06:30:16;;;;;;;8.73;6.95;;;25.40;46.40;;;;;;5095763;28;20066;-72
2021/04/29 06:32:46;;;;;;;7.35;6.38;;;25.40;47.10;;;;;;5099394;28;20104;-70
2021/04/29 06:35:13;;;;;;;7.47;6.75;;;25.20;47.80;;;;;;5099601;28;20383;-69
2021/04/29 06:37:41;;;;;;;7.70;5.95;;;25.00;46.60;;;;;;5090021;28;20067;-70
2021/04/29 06:40:09;;;;;;;6.55;5.97;;;24.70;47.30;;;;;;5099311;28;20480;-72
2021/04/29 06:42:36;;;;;;;7.93;6.95;;;24.50;47.80;;;;;;5099645;28;20055;-69
2021/04/29 06:45:04;;;;;;;6.03;5.50;;;24.40;48.00;;;;;;5097414;28;20080;-69
2021/04/29 06:47:33;;;;;;;6.63;6.03;;;24.20;48.00;;;;;;5097419;28;20039;-68
2021/04/29 06:50:01;;;;;;;12.30;10.45;;;24.00;48.90;;;;;;5097087;28;20028;-72
2021/04/29 06:52:28;;;;;;;7.72;7.03;;;23.80;49.20;;;;;;5095711;28;20024;-70
2021/04/29 06:54:55;;;;;;;10.10;9.10;;;23.50;49.90;;;;;;5098208;28;20012;-71
2021/04/29 06:57:23;;;;;;;9.93;8.00;;;23.20;51.40;;;;;;5098611;28;20027;-69
2021/04/29 06:59:50;;;;;;;13.88;11.95;;;23.00;52.50;;;;;;5096638;28;20407;-70
2021/04/29 07:02:18;;;;;;;12.02;10.82;;;22.80;55.20;;;;;;5095508;28;20084;-70
2021/04/29 07:04:45;;;;;;;13.05;11.75;;;22.60;58.20;;;;;;5099343;28;20064;-70
2021/04/29 07:07:13;;;;;;;14.15;12.57;;;22.30;60.50;;;;;;5097572;28;20023;-70
2021/04/29 07:09:40;;;;;;;14.68;13.23;;;21.90;61.70;;;;;;5102882;28;20508;-71
2021/04/29 07:12:08;;;;;;;14.05;12.75;;;21.60;63.40;;;;;;5103770;28;20054;-71
2021/04/29 07:14:35;;;;;;;14.35;12.95;;;21.30;65.30;;;;;;5100123;28;20395;-70
2021/04/29 07:17:03;;;;;;;15.85;14.15;;;21.00;66.00;;;;;;5106253;28;20156;-68
2021/04/29 07:19:30;;;;;;;16.45;13.75;;;20.70;67.20;;;;;;5105587;28;20036;-70
2021/04/29 07:21:57;;;;;;;15.95;14.23;;;20.50;68.70;;;;;;5097880;28;20486;-69
2021/04/29 07:24:25;;;;;;;17.15;13.48;;;20.30;69.20;;;;;;5101288;28;20118;-71
2021/04/29 07:26:52;;;;;;;16.15;14.45;;;20.10;70.10;;;;;;5107771;28;20031;-72
2021/04/29 07:29:20;;;;;;;17.70;14.80;;;20.10;70.70;;;;;;5104770;28;20027;-71
2021/04/29 07:31:47;;;;;;;16.20;14.50;;;19.90;71.20;;;;;;5107907;28;20059;-69
2021/04/29 07:34:15;;;;;;;16.70;14.35;;;19.80;71.50;;;;;;5102607;28;20032;-72
2021/04/29 07:36:42;;;;;;;17.70;13.52;;;19.60;72.20;;;;;;5104376;28;21237;-70
2021/04/29 07:39:09;;;;;;;14.20;11.88;;;19.60;73.20;;;;;;5104148;27;20043;-69
2021/04/29 07:41:37;;;;;;;10.40;7.88;;;19.40;73.70;;;;;;5101935;28;20047;-69
2021/04/29 07:44:04;;;;;;;9.68;8.50;;;19.30;73.70;;;;;;5109220;28;20035;-71
2021/04/29 07:46:32;;;;;;;14.30;11.60;;;19.30;74.30;;;;;;5108702;27;20016;-69
2021/04/29 07:49:00;;;;;;;33.42;23.00;;;19.20;74.60;;;;;;5107131;28;20482;-68
2021/04/29 07:51:30;;;;;;;15.05;13.57;;;19.10;75.20;;;;;;5101836;28;20107;-69
2021/04/29 07:54:03;;;;;;;15.35;12.23;;;18.90;75.50;;;;;;5103530;28;20024;-69
2021/04/29 07:56:31;;;;;;;44.30;32.03;;;18.80;76.00;;;;;;4750129;27;9999652;-66
2021/04/29 07:58:58;;;;;;;41.97;32.78;;;18.70;76.70;;;;;;5101457;28;20110;-68
2021/04/29 08:01:26;;;;;;;27.60;19.23;;;18.60;77.90;;;;;;5098225;28;20027;-66
2021/04/29 08:03:53;;;;;;;11.45;9.88;;;18.50;78.10;;;;;;5105381;28;20057;-65
2021/04/29 08:06:20;;;;;;;14.82;9.20;;;18.50;77.90;;;;;;5106157;28;20053;-69
2021/04/29 08:08:48;;;;;;;20.08;10.70;;;18.40;78.10;;;;;;5101319;28;20488;-67
2021/04/29 08:11:16;;;;;;;8.88;7.95;;;18.40;79.10;;;;;;5100421;28;20065;-66
2021/04/29 08:13:44;;;;;;;10.35;7.85;;;18.30;78.60;;;;;;5103409;28;20046;-69
2021/04/29 08:16:12;;;;;;;8.88;7.97;;;18.10;79.00;;;;;;5100638;28;20049;-69
2021/04/29 08:18:39;;;;;;;14.38;11.13;;;18.00;79.40;;;;;;5101218;28;20046;-70
2021/04/29 08:21:08;;;;;;;16.17;14.63;;;18.00;79.10;;;;;;5105623;28;20035;-66
2021/04/29 08:23:36;;;;;;;23.75;19.98;;;17.90;79.70;;;;;;5105836;28;20062;-65
2021/04/29 08:26:06;;;;;;;22.00;19.50;;;17.90;80.30;;;;;;5104618;28;20110;-70
2021/04/29 08:28:34;;;;;;;22.77;20.33;;;17.80;80.50;;;;;;5101909;28;20039;-69
2021/04/29 08:31:01;;;;;;;19.38;17.00;;;17.80;79.80;;;;;;5096327;28;20031;-67
2021/04/29 08:33:28;;;;;;;18.23;15.00;;;17.80;79.20;;;;;;5101556;28;20370;-63
2021/04/29 08:35:56;;;;;;;17.52;13.45;;;17.80;79.10;;;;;;5102015;28;20023;-68
2021/04/29 08:38:23;;;;;;;12.73;11.52;;;17.70;79.00;;;;;;5098571;28;20036;-64
2021/04/29 08:40:51;;;;;;;12.20;11.00;;;17.70;78.60;;;;;;5100379;28;20028;-67
2021/04/29 08:43:19;;;;;;;16.60;14.63;;;17.60;79.00;;;;;;5098857;28;20035;-72
2021/04/29 08:45:47;;;;;;;18.02;16.23;;;17.50;79.70;;;;;;5100513;28;20338;-71
2021/04/29 08:48:21;;;;;;;19.48;17.42;;;17.60;79.60;;;;;;5102064;28;20027;-65
2021/04/29 08:50:49;;;;;;;22.27;18.02;;;17.60;80.30;;;;;;5094355;28;20074;-68
2021/04/29 08:53:16;;;;;;;24.02;21.25;;;17.50;79.90;;;;;;5097572;27;20114;-73
2021/04/29 08:55:44;;;;;;;24.40;21.80;;;17.40;80.80;;;;;;5099433;28;20020;-73
2021/04/29 08:58:12;;;;;;;26.38;23.67;;;17.30;80.80;;;;;;5100905;28;20020;-73
2021/04/29 09:00:39;;;;;;;28.90;24.83;;;17.30;81.60;;;;;;5095581;28;20028;-70
2021/04/29 09:03:10;;;;;;;27.58;24.08;;;17.20;81.80;;;;;;5101282;28;20020;-70
2021/04/29 09:05:37;;;;;;;27.02;24.35;;;17.20;82.50;;;;;;5098032;28;20031;-67
2021/04/29 09:08:10;;;;;;;31.23;24.63;;;17.10;82.10;;;;;;5096936;28;20571;-67
2021/04/29 09:10:40;;;;;;;25.48;22.50;;;17.00;82.70;;;;;;5098070;28;20705;-68
2021/04/29 09:13:17;;;;;;;25.80;23.20;;;16.90;83.10;;;;;;5098731;28;20410;-68
2021/04/29 09:15:45;;;;;;;30.13;23.95;;;16.80;83.60;;;;;;5098466;28;20032;-68
2021/04/29 09:18:17;;;;;;;27.95;25.08;;;16.80;83.50;;;;;;5101935;28;20031;-74
2021/04/29 09:20:54;;;;;;;30.58;23.48;;;16.80;83.60;;;;;;5092825;28;20034;-68
2021/04/29 09:23:27;;;;;;;24.40;22.05;;;16.80;83.80;;;;;;5098942;28;20065;-68
2021/04/29 09:25:59;;;;;;;25.80;23.13;;;16.80;83.90;;;;;;5097839;28;20054;-65
2021/04/29 09:28:44;;;;;;;;;;;16.70;83.80;;;;;;5095940;28;20222;-70
2021/04/29 09:31:16;;;;;;;24.95;22.20;;;16.70;84.30;;;;;;5100341;28;21097;-69
2021/04/29 09:33:49;;;;;;;25.08;22.58;;;16.60;84.00;;;;;;5098858;28;20100;-69
2021/04/29 09:36:29;;;;;;;28.33;25.20;;;16.50;84.50;;;;;;5090232;28;20027;-67
2021/04/29 09:38:58;;;;;;;28.90;25.90;;;16.40;84.60;;;;;;5093446;28;20026;-69
2021/04/29 09:41:32;;;;;;;31.58;27.95;;;16.30;85.00;;;;;;5095499;28;20120;-66
2021/04/29 09:44:03;;;;;;;30.55;27.48;;;16.30;85.10;;;;;;5096676;28;20026;-69
2021/04/29 09:46:49;;;;;;;30.90;27.70;;;16.20;85.40;;;;;;5099416;28;20396;-71
2021/04/29 09:49:27;;;;;;;32.83;29.27;;;16.10;85.80;;;;;;5099216;28;20080;-68
2021/04/29 09:51:55;;;;;;;32.65;28.42;;;16.00;86.00;;;;;;5086796;28;20023;-68
2021/04/29 09:54:26;;;;;;;35.17;31.38;;;15.90;86.40;;;;;;5101546;28;20027;-65
2021/04/29 09:56:59;;;;;;;34.38;30.77;;;15.90;86.70;;;;;;5098247;28;20065;-73
2021/04/29 09:59:26;;;;;;;;;;;15.80;86.70;;;;;;5101947;28;20027;-67
2021/04/29 10:01:58;;;;;;;34.50;28.48;;;15.80;87.20;;;;;;5102634;28;19919;-74
2021/04/29 10:04:28;;;;;;;35.42;29.58;;;15.70;87.10;;;;;;5101174;28;20031;-69
2021/04/29 10:07:01;;;;;;;35.20;31.48;;;15.70;87.40;;;;;;5094757;28;20798;-67
2021/04/29 10:09:30;;;;;;;34.70;31.02;;;15.60;88.00;;;;;;5101460;28;20440;-73
2021/04/29 10:12:09;;;;;;;44.65;37.80;;;15.40;88.40;;;;;;5089382;28;20492;-70
2021/04/29 10:14:42;;;;;;;38.38;34.13;;;15.40;88.10;;;;;;5096569;28;20016;-72
2021/04/29 10:17:13;;;;;;;43.10;38.13;;;15.30;88.90;;;;;;5100675;28;20023;-76
2021/04/29 10:19:50;;;;;;;45.35;40.38;;;15.30;89.00;;;;;;5098072;28;20028;-69
2021/04/29 10:22:23;;;;;;;35.80;31.98;;;15.20;89.00;;;;;;5097684;28;20039;-72
2021/04/29 10:24:53;;;;;;;36.65;32.38;;;15.20;89.30;;;;;;5098650;28;20031;-68
2021/04/29 10:27:26;;;;;;;39.03;31.63;;;15.20;89.50;;;;;;5092399;28;20399;-65
2021/04/29 10:30:18;;;;;;;34.42;30.42;;;15.20;90.00;;;;;;5098922;28;20115;-72
2021/04/29 10:32:45;;;;;;;34.47;30.73;;;15.20;89.50;;;;;;5092461;28;20491;-71
2021/04/29 10:35:21;;;;;;;35.30;31.70;;;15.20;89.50;;;;;;5098929;28;20046;-72
2021/04/29 10:37:57;;;;;;;35.00;31.58;;;15.20;89.80;;;;;;5095256;28;20127;-70
2021/04/29 10:40:37;;;;;;;35.13;31.33;;;15.20;89.70;;;;;;5097169;28;20024;-72
2021/04/29 10:43:09;;;;;;;36.33;32.45;;;15.20;89.70;;;;;;5093866;28;20133;-67
2021/04/29 10:45:36;;;;;;;37.30;32.60;;;15.20;89.50;;;;;;5090185;28;20034;-70
2021/04/29 10:48:09;;;;;;;34.45;30.90;;;15.30;89.30;;;;;;5095773;28;20038;-71
2021/04/29 10:50:51;;;;;;;41.72;31.50;;;15.30;89.20;;;;;;5092741;28;20035;-73
2021/04/29 10:53:29;;;;;;;38.90;32.00;;;15.30;88.60;;;;;;5098428;28;20027;-72
2021/04/29 10:56:19;;;;;;;43.85;31.02;;;15.30;89.10;;;;;;5100248;28;20032;-69
2021/04/29 10:58:48;;;;;;;37.90;30.75;;;15.20;89.20;;;;;;5096187;28;20016;-70
2021/04/29 11:01:18;;;;;;;55.53;33.70;;;15.00;89.80;;;;;;4744139;27;10000245;-69
2021/04/29 11:03:50;;;;;;;44.13;30.23;;;14.90;90.20;;;;;;5099205;28;20091;-69
2021/04/29 11:06:22;;;;;;;49.42;35.15;;;14.70;90.40;;;;;;5094860;28;20780;-70
2021/04/29 11:08:55;;;;;;;50.38;34.70;;;14.70;90.70;;;;;;5096091;28;20031;-70
2021/04/29 11:11:34;;;;;;;47.55;32.53;;;14.60;90.80;;;;;;5093619;28;20447;-72
2021/04/29 11:14:04;;;;;;;46.83;32.30;;;14.60;90.80;;;;;;5094486;28;20024;-69
2021/04/29 11:16:52;;;;;;;46.28;34.17;;;14.60;90.90;;;;;;5099640;28;20339;-72
2021/04/29 11:19:48;;;;;;;50.90;33.97;;;14.50;91.00;;;;;;5099282;28;20066;-70
2021/04/29 11:22:27;;;;;;;41.00;34.28;;;14.40;91.20;;;;;;5096291;28;20024;-71
2021/04/29 11:24:55;;;;;;;41.67;32.42;;;14.50;91.40;;;;;;5096411;28;20115;-69
2021/04/29 11:27:38;;;;;;;46.72;31.83;;;14.60;91.40;;;;;;5100191;28;20201;-69
2021/04/29 11:30:13;;;;;;;44.10;31.88;;;14.80;90.80;;;;;;5099579;28;20377;-71
2021/04/29 11:32:53;;;;;;;40.28;31.23;;;14.80;90.70;;;;;;5094847;28;20039;-67
2021/04/29 11:35:26;;;;;;;37.85;32.53;;;14.80;90.90;;;;;;5101265;28;20039;-68
2021/04/29 11:37:54;;;;;;;46.50;31.67;;;14.70;90.60;;;;;;5099494;28;20499;-70
2021/04/29 11:40:23;;;;;;;58.22;34.38;;;14.70;90.60;;;;;;5098135;28;20024;-69
2021/04/29 11:42:54;;;;;;;55.80;32.65;;;14.60;90.80;;;;;;5099306;28;20104;-67
2021/04/29 11:45:41;;;;;;;58.42;33.47;;;14.70;91.00;;;;;;5094746;28;20028;-69
2021/04/29 11:48:15;;;;;;;71.07;34.72;;;14.60;91.00;;;;;;5093510;28;20117;-68
2021/04/29 11:50:54;;;;;;;59.70;31.55;;;14.60;91.30;;;;;;5099064;27;20118;-69
2021/04/29 11:53:29;;;;;;;60.88;31.73;;;14.50;91.20;;;;;;5095830;28;20024;-70
2021/04/29 11:56:01;;;;;;;55.75;30.52;;;14.60;91.20;;;;;;5098195;28;20043;-68
2021/04/29 11:58:29;;;;;;;55.97;30.60;;;14.60;91.30;;;;;;5096584;28;20030;-68
2021/04/29 12:00:57;;;;;;;48.17;31.02;;;14.60;91.30;;;;;;5098928;28;20042;-69
2021/04/29 12:03:27;;;;;;;43.10;29.25;;;14.60;91.10;;;;;;5096753;28;20024;-68
2021/04/29 12:05:59;;;;;;;49.65;30.77;;;14.60;91.40;;;;;;5099529;28;20443;-67
2021/04/29 12:08:33;;;;;;;47.90;28.38;;;14.50;91.30;;;;;;5097343;28;20230;-69
2021/04/29 12:11:07;;;;;;;50.15;28.27;;;14.50;91.50;;;;;;5099561;28;20482;-69
2021/04/29 12:13:36;;;;;;;42.22;25.38;;;14.60;91.50;;;;;;5099390;28;20024;-68
2021/04/29 12:16:33;;;;;;;42.00;25.27;;;14.60;91.20;;;;;;5099589;28;20020;-69
2021/04/29 12:19:03;;;;;;;41.95;27.30;;;14.40;91.50;;;;;;5099021;28;20038;-74
2021/04/29 12:21:33;;;;;;;35.03;26.92;;;14.20;91.80;;;;;;5099079;28;20016;-69
2021/04/29 12:24:07;;;;;;;32.88;26.02;;;14.10;91.90;;;;;;5099723;28;20019;-69
2021/04/29 12:26:42;;;;;;;38.22;25.98;;;14.00;92.00;;;;;;5101109;28;20041;-69
2021/04/29 12:29:18;;;;;;;30.58;26.88;;;14.00;92.20;;;;;;5099126;28;20081;-70
2021/04/29 12:31:55;;;;;;;32.67;26.40;;;13.90;92.20;;;;;;5100682;28;20031;-69
2021/04/29 12:34:24;;;;;;;38.13;27.10;;;14.00;92.30;;;;;;5098765;28;20418;-69
2021/04/29 12:37:00;;;;;;;33.08;26.98;;;14.20;92.20;;;;;;5101543;28;20028;-67
2021/04/29 12:39:30;;;;;;;34.38;28.15;;;14.20;92.10;;;;;;5099091;28;20488;-69
2021/04/29 12:41:58;;;;;;;35.80;27.33;;;14.20;92.20;;;;;;5105088;28;20047;-72
2021/04/29 12:44:39;;;;;;;36.38;29.02;;;14.20;92.20;;;;;;5098492;28;20024;-71
2021/04/29 12:47:08;;;;;;;34.28;28.35;;;14.20;92.40;;;;;;5100126;28;20027;-69
2021/04/29 12:49:36;;;;;;;35.97;29.98;;;14.10;92.20;;;;;;5099117;28;20033;-71
2021/04/29 12:52:11;;;;;;;34.50;30.50;;;14.00;92.40;;;;;;5102580;27;20440;-69
2021/04/29 12:54:40;;;;;;;35.85;30.80;;;14.00;92.50;;;;;;5098277;28;20031;-69
2021/04/29 12:57:08;;;;;;;36.85;33.08;;;14.00;92.80;;;;;;5099827;28;20041;-68
2021/04/29 12:59:46;;;;;;;41.40;36.80;;;13.90;92.70;;;;;;5097420;28;20032;-68
2021/04/29 13:02:13;;;;;;;39.78;35.22;;;13.90;92.80;;;;;;5103775;28;20027;-69
2021/04/29 13:04:41;;;;;;;43.40;37.72;;;13.90;93.20;;;;;;5100987;28;20028;-68
2021/04/29 13:07:20;;;;;;;41.22;36.83;;;13.90;92.80;;;;;;5100796;28;20405;-71
2021/04/29 13:09:50;;;;;;;41.13;36.72;;;13.90;93.00;;;;;;5096382;28;20801;-69
2021/04/29 13:12:20;;;;;;;41.78;37.35;;;13.80;93.00;;;;;;5098790;28;20046;-69
2021/04/29 13:14:59;;;;;;;42.17;37.78;;;13.80;92.60;;;;;;5096969;28;20023;-70
2021/04/29 13:17:27;;;;;;;42.45;37.88;;;13.80;93.00;;;;;;5098767;28;20031;-68
2021/04/29 13:20:07;;;;;;;43.53;39.05;;;13.90;92.80;;;;;;5095998;28;20020;-70
2021/04/29 13:22:36;;;;;;;41.05;36.80;;;13.90;92.80;;;;;;5098443;28;20066;-72
2021/04/29 13:25:10;;;;;;;41.58;37.25;;;13.80;92.80;;;;;;5099604;28;20030;-72
2021/04/29 13:27:37;;;;;;;44.38;39.58;;;13.70;92.90;;;;;;5098436;28;20437;-67